createdAt,value
2018-05-18T00:00:53.760Z,98141.70
2018-05-18T00:03:21.476Z,98144.89
2018-05-18T00:05:49.075Z,98140.91
2018-05-18T00:08:16.762Z,98143.05
2018-05-18T00:10:44.358Z,98135.40
2018-05-18T00:13:12.034Z,98140.75
2018-05-18T00:15:39.652Z,98131.02
2018-05-18T00:18:07.249Z,98140.25
2018-05-18T00:20:34.910Z,98137.00
2018-05-18T00:23:02.507Z,98137.16
2018-05-18T00:25:30.227Z,98152.67
2018-05-18T00:27:57.820Z,98143.71
2018-05-18T00:30:25.437Z,98147.03
2018-05-18T00:32:53.067Z,98141.85
2018-05-18T00:35:20.662Z,98146.27
2018-05-18T00:37:48.289Z,98141.65
2018-05-18T00:40:15.882Z,98147.55
2018-05-18T00:42:43.526Z,98147.81
2018-05-18T00:45:11.136Z,98144.78
2018-05-18T00:47:38.738Z,98146.58
2018-05-18T00:50:06.360Z,98145.58
2018-05-18T00:52:33.959Z,98143.42
2018-05-18T00:55:01.582Z,98140.29
2018-05-18T00:57:29.180Z,98141.66
2018-05-18T00:59:56.854Z,98150.89
2018-05-18T01:02:24.463Z,98145.59
2018-05-18T01:04:52.062Z,98148.33
2018-05-18T01:07:19.680Z,98144.52
2018-05-18T01:09:47.290Z,98144.99
2018-05-18T01:12:14.911Z,98151.30
2018-05-18T01:14:42.503Z,98150.09
2018-05-18T01:17:10.126Z,98151.38
2018-05-18T01:19:37.738Z,98152.14
2018-05-18T01:22:05.337Z,98146.79
2018-05-18T01:24:32.954Z,98144.84
2018-05-18T01:27:00.561Z,98146.03
2018-05-18T01:29:28.181Z,98147.78
2018-05-18T01:31:55.801Z,98154.72
2018-05-18T01:34:23.459Z,98155.09
2018-05-18T01:36:51.056Z,98154.48
2018-05-18T01:39:18.691Z,98148.36
2018-05-18T01:41:46.332Z,98148.91
2018-05-18T01:44:13.926Z,98144.95
2018-05-18T01:46:41.537Z,98141.81
2018-05-18T01:49:09.140Z,98145.08
2018-05-18T01:51:36.957Z,98147.57
2018-05-18T01:54:04.552Z,98146.31
2018-05-18T01:56:32.124Z,98148.37
2018-05-18T01:58:59.747Z,98151.08
2018-05-18T02:01:27.345Z,98152.11
2018-05-18T02:03:54.954Z,98152.05
2018-05-18T02:06:22.555Z,98157.20
2018-05-18T02:08:50.418Z,98151.67
2018-05-18T02:11:18.027Z,98155.40
2018-05-18T02:13:45.630Z,98159.06
2018-05-18T02:16:13.244Z,98159.34
2018-05-18T02:18:40.851Z,98161.53
2018-05-18T02:21:08.730Z,98170.59
2018-05-18T02:23:36.323Z,98162.61
2018-05-18T02:26:03.923Z,98166.27
2018-05-18T02:28:31.546Z,98163.50
2018-05-18T02:30:59.139Z,98164.29
2018-05-18T02:33:26.758Z,98166.60
2018-05-18T02:35:54.350Z,98164.11
2018-05-18T02:38:21.986Z,98163.16
2018-05-18T02:40:49.589Z,98165.31
2018-05-18T02:43:17.187Z,98170.02
2018-05-18T02:45:44.818Z,98166.42
2018-05-18T02:48:12.411Z,98165.89
2018-05-18T02:50:40.077Z,98169.43
2018-05-18T02:53:07.659Z,98161.32
2018-05-18T02:55:35.424Z,98163.41
2018-05-18T02:58:03.027Z,98170.31
2018-05-18T03:00:30.725Z,98166.69
2018-05-18T03:02:58.348Z,98165.31
2018-05-18T03:05:25.944Z,98173.20
2018-05-18T03:07:53.562Z,98172.79
2018-05-18T03:10:21.162Z,98171.45
2018-05-18T03:12:48.806Z,98175.32
2018-05-18T03:15:16.414Z,98175.78
2018-05-18T03:17:44.016Z,98178.64
2018-05-18T03:20:11.635Z,98179.31
2018-05-18T03:22:39.236Z,98169.55
2018-05-18T03:25:06.858Z,98173.91
2018-05-18T03:27:34.456Z,98185.80
2018-05-18T03:30:02.475Z,98187.63
2018-05-18T03:32:30.072Z,98183.62
2018-05-18T03:34:57.670Z,98182.11
2018-05-18T03:37:25.295Z,98187.30
2018-05-18T03:39:52.929Z,98178.58
2018-05-18T03:42:20.545Z,98178.58
2018-05-18T03:44:48.147Z,98192.65
2018-05-18T03:47:16.206Z,98183.62
2018-05-18T03:49:43.799Z,98187.23
2018-05-18T03:52:11.403Z,98190.53
2018-05-18T03:54:39.028Z,98191.94
2018-05-18T03:57:06.626Z,98189.39
2018-05-18T03:59:34.250Z,98188.75
2018-05-18T04:02:13.532Z,98195.20
2018-05-18T04:07:57.302Z,98196.74
2018-05-18T04:10:24.991Z,98202.14
2018-05-18T04:12:52.606Z,98204.66
2018-05-18T04:15:20.400Z,98199.84
2018-05-18T04:17:47.998Z,98202.14
2018-05-18T04:20:15.837Z,98204.10
2018-05-18T04:22:43.474Z,98209.95
2018-05-18T04:25:11.074Z,98213.77
2018-05-18T04:27:38.681Z,98209.34
2018-05-18T04:30:06.371Z,98214.72
2018-05-18T04:32:33.966Z,98215.00
2018-05-18T04:35:01.570Z,98214.34
2018-05-18T04:37:29.176Z,98220.57
2018-05-18T04:39:56.794Z,98223.17
2018-05-18T04:42:24.390Z,98222.95
2018-05-18T04:44:52.010Z,98222.57
2018-05-18T04:47:19.606Z,98229.39
2018-05-18T04:49:47.234Z,98229.33
2018-05-18T04:52:14.930Z,98232.16
2018-05-18T04:54:42.527Z,98230.16
2018-05-18T04:57:10.142Z,98229.19
2018-05-18T04:59:37.729Z,98234.59
2018-05-18T05:02:05.693Z,98229.45
2018-05-18T05:04:33.287Z,98229.34
2018-05-18T05:07:00.895Z,98235.11
2018-05-18T05:09:28.507Z,98230.65
2018-05-18T05:11:56.114Z,98232.09
2018-05-18T05:14:23.738Z,98238.53
2018-05-18T05:16:51.337Z,98239.94
2018-05-18T05:19:19.229Z,98252.34
2018-05-18T05:21:46.844Z,98246.75
2018-05-18T05:24:14.450Z,98245.73
2018-05-18T05:26:42.072Z,98252.84
2018-05-18T05:29:09.777Z,98251.33
2018-05-18T05:31:37.391Z,98246.06
2018-05-18T05:34:04.998Z,98254.64
2018-05-18T05:36:32.643Z,98258.23
2018-05-18T05:39:00.245Z,98255.52
2018-05-18T05:41:27.846Z,98254.72
2018-05-18T05:43:55.550Z,98258.78
2018-05-18T05:46:23.159Z,98263.33
2018-05-18T05:48:50.782Z,98263.91
2018-05-18T05:51:18.436Z,98268.70
2018-05-18T05:53:46.403Z,98266.63
2018-05-18T05:56:14.010Z,98269.59
2018-05-18T05:58:41.623Z,98277.40
2018-05-18T06:01:09.253Z,98283.28
2018-05-18T06:03:36.949Z,98278.48
2018-05-18T06:06:04.613Z,98284.48
2018-05-18T06:08:32.214Z,98279.57
2018-05-18T06:11:00.047Z,98277.76
2018-05-18T06:13:27.651Z,98275.20
2018-05-18T06:15:55.247Z,98278.92
2018-05-18T06:18:22.877Z,98273.81
2018-05-18T06:20:50.472Z,98282.00
2018-05-18T06:23:18.097Z,98279.30
2018-05-18T06:25:45.707Z,98280.33
2018-05-18T06:28:14.485Z,98277.63
2018-05-18T06:30:42.095Z,98275.64
2018-05-18T06:33:09.690Z,98277.11
2018-05-18T06:35:37.319Z,98280.58
2018-05-18T06:38:04.919Z,98278.77
2018-05-18T06:40:32.562Z,98283.41
2018-05-18T06:43:00.160Z,98282.73
2018-05-18T06:45:28.238Z,98283.81
2018-05-18T06:47:55.842Z,98278.23
2018-05-18T06:50:23.442Z,98277.09
2018-05-18T06:52:51.058Z,98285.90
2018-05-18T06:55:18.656Z,98280.08
2018-05-18T06:57:46.279Z,98283.89
2018-05-18T07:00:13.903Z,98281.71
2018-05-18T07:02:41.667Z,98282.36
2018-05-18T07:05:09.262Z,98289.23
2018-05-18T07:07:36.870Z,98281.67
2018-05-18T07:10:04.787Z,98278.52
2018-05-18T07:12:32.400Z,98286.55
2018-05-18T07:15:00.027Z,98285.39
2018-05-18T07:17:27.631Z,98286.06
2018-05-18T07:19:55.411Z,98282.55
2018-05-18T07:22:23.075Z,98281.48
2018-05-18T07:24:50.690Z,98286.13
2018-05-18T07:27:18.401Z,98287.17
2018-05-18T07:29:46.007Z,98283.16
2018-05-18T07:32:13.638Z,98283.70
2018-05-18T07:34:41.259Z,98288.72
2018-05-18T07:37:09.194Z,98287.03
2018-05-18T07:39:36.814Z,98290.64
2018-05-18T07:42:04.418Z,98287.75
2018-05-18T07:44:32.060Z,98286.48
2018-05-18T07:46:59.666Z,98293.78
2018-05-18T07:49:27.970Z,98290.36
2018-05-18T07:51:55.644Z,98288.16
2018-05-18T07:54:23.417Z,98296.01
2018-05-18T07:56:51.046Z,98297.83
2018-05-18T07:59:18.644Z,98292.41
2018-05-18T08:01:46.394Z,98284.77
2018-05-18T08:04:13.984Z,98288.83
2018-05-18T08:06:41.606Z,98282.21
2018-05-18T08:09:09.206Z,98284.28
2018-05-18T08:11:36.843Z,98288.83
2018-05-18T08:14:04.469Z,98280.61
2018-05-18T08:18:58.963Z,98285.42
2018-05-18T08:21:26.568Z,98290.00
2018-05-18T08:23:54.235Z,98291.94
2018-05-18T08:26:21.826Z,98297.87
2018-05-18T08:29:01.423Z,98286.34
2018-05-18T08:31:29.022Z,98291.04
2018-05-18T08:33:56.643Z,98295.70
2018-05-18T08:36:24.271Z,98289.39
2018-05-18T08:38:51.863Z,98289.63
2018-05-18T08:41:19.502Z,98286.97
2018-05-18T08:43:47.214Z,98285.05
2018-05-18T08:46:14.820Z,98295.79
2018-05-18T08:48:42.498Z,98290.50
2018-05-18T08:51:10.096Z,98291.77
2018-05-18T08:53:37.915Z,98288.41
2018-05-18T08:56:05.524Z,98296.48
2018-05-18T08:58:33.138Z,98290.55
2018-05-18T09:01:00.785Z,98292.61
2018-05-18T09:03:28.418Z,98293.80
2018-05-18T09:05:56.278Z,98294.20
2018-05-18T09:08:23.890Z,98297.80
2018-05-18T09:10:51.498Z,98301.00
2018-05-18T09:13:22.546Z,98300.17
2018-05-18T09:15:50.609Z,98298.69
2018-05-18T09:18:18.908Z,98299.17
2018-05-18T09:20:47.586Z,98298.16
2018-05-18T09:23:15.382Z,98296.61
2018-05-18T09:25:43.022Z,98294.55
2018-05-18T09:28:11.701Z,98289.88
2018-05-18T09:30:39.459Z,98288.77
2018-05-18T09:33:07.053Z,98293.75
2018-05-18T09:35:34.904Z,98297.64
2018-05-18T09:38:02.767Z,98293.47
2018-05-18T09:40:30.691Z,98303.78
2018-05-18T09:42:58.711Z,98305.95
2018-05-18T09:45:26.626Z,98303.63
2018-05-18T09:47:54.218Z,98298.41
2018-05-18T09:50:21.836Z,98300.63
2018-05-18T09:52:49.431Z,98302.23
2018-05-18T09:55:17.561Z,98302.69
2018-05-18T09:57:45.081Z,98300.66
2018-05-18T10:00:12.680Z,98300.89
2018-05-18T10:02:40.318Z,98299.23
2018-05-18T10:05:07.962Z,98295.84
2018-05-18T10:07:39.436Z,98295.75
2018-05-18T10:10:07.046Z,98309.17
2018-05-18T10:12:34.649Z,98307.80
2018-05-18T10:15:02.282Z,98295.27
2018-05-18T10:17:41.350Z,98295.88
2018-05-18T10:20:09.495Z,98298.23
2018-05-18T10:22:37.103Z,98300.23
2018-05-18T10:25:04.930Z,98294.49
2018-05-18T10:27:32.596Z,98294.23
2018-05-18T10:30:00.213Z,98290.29
2018-05-18T10:32:27.857Z,98291.42
2018-05-18T10:34:55.451Z,98283.84
2018-05-18T10:37:23.073Z,98287.13
2018-05-18T10:39:50.674Z,98284.08
2018-05-18T10:42:18.307Z,98287.73
2018-05-18T10:44:45.908Z,98288.53
2018-05-18T10:47:13.503Z,98290.58
2018-05-18T10:49:41.133Z,98279.63
2018-05-18T10:52:08.748Z,98282.12
2018-05-18T10:54:36.444Z,98277.75
2018-05-18T10:57:04.047Z,98271.71
2018-05-18T10:59:32.410Z,98267.58
2018-05-18T11:02:00.185Z,98267.17
2018-05-18T11:04:27.787Z,98271.85
2018-05-18T11:06:55.458Z,98272.33
2018-05-18T11:09:23.060Z,98269.23
2018-05-18T11:11:50.689Z,98264.02
2018-05-18T11:14:18.407Z,98264.25
2018-05-18T11:16:46.267Z,98258.31
2018-05-18T11:19:13.899Z,98263.02
2018-05-18T11:21:41.502Z,98259.38
2018-05-18T11:24:09.468Z,98257.97
2018-05-18T11:26:37.396Z,98255.61
2018-05-18T11:29:05.018Z,98258.62
2018-05-18T11:31:32.639Z,98259.76
2018-05-18T11:34:00.258Z,98259.57
2018-05-18T11:36:27.971Z,98257.12
2018-05-18T11:38:55.714Z,98250.61
2018-05-18T11:41:23.350Z,98253.61
2018-05-18T11:43:50.945Z,98252.24
2018-05-18T11:46:18.589Z,98260.07
2018-05-18T11:48:46.212Z,98246.45
2018-05-18T11:51:14.047Z,98245.14
2018-05-18T16:12:10.858Z,98107.92
2018-05-18T16:14:38.483Z,98105.14
2018-05-18T16:17:06.200Z,98110.03
2018-05-18T16:19:33.809Z,98113.86
2018-05-18T16:22:01.421Z,98111.13
2018-05-18T16:24:29.065Z,98112.50
2018-05-18T16:26:56.677Z,98103.06
2018-05-18T16:29:24.343Z,98116.63
2018-05-18T16:31:51.959Z,98106.23
2018-05-18T16:34:19.703Z,98116.73
2018-05-18T16:36:47.329Z,98105.99
2018-05-18T16:39:14.952Z,98109.05
2018-05-18T16:41:42.680Z,98107.97
2018-05-18T16:44:10.324Z,98110.87
2018-05-18T16:46:37.974Z,98105.99
2018-05-18T16:49:05.634Z,98105.80
2018-05-18T16:51:33.555Z,98103.95
2018-05-18T16:54:01.235Z,98109.47
2018-05-18T16:56:28.878Z,98111.17
2018-05-18T16:58:56.879Z,98112.11
2018-05-18T17:01:24.572Z,98110.17
2018-05-18T17:03:52.373Z,98109.05
2018-05-18T17:06:19.998Z,98112.42
2018-05-18T17:08:47.687Z,98118.52
2018-05-18T17:11:15.347Z,98114.45
2018-05-18T17:13:43.028Z,98115.10
2018-05-18T17:16:10.692Z,98122.30
2018-05-18T17:18:38.355Z,98117.24
2018-05-18T17:21:06.174Z,98118.07
2018-05-18T17:23:33.807Z,98120.41
2018-05-18T17:26:01.511Z,98117.61
2018-05-18T17:28:29.185Z,98123.23
2018-05-18T17:30:56.842Z,98116.89
2018-05-18T17:33:24.504Z,98124.75
2018-05-18T17:35:52.154Z,98124.55
2018-05-18T17:38:19.811Z,98124.52
2018-05-18T17:40:49.621Z,98130.73
2018-05-18T17:43:17.608Z,98134.80
2018-05-18T17:45:45.226Z,98136.56
2018-05-18T17:48:13.874Z,98139.39
2018-05-18T17:50:41.494Z,98138.95
2018-05-18T17:53:09.101Z,98140.66
2018-05-18T17:55:36.738Z,98145.38
2018-05-18T17:58:04.347Z,98140.63
2018-05-18T18:00:32.290Z,98145.11
2018-05-18T18:02:59.886Z,98144.36
2018-05-18T18:05:27.494Z,98151.45
2018-05-18T18:07:55.211Z,98147.53
2018-05-18T18:10:22.763Z,98145.72
2018-05-18T18:12:50.415Z,98157.99
2018-05-18T18:15:18.016Z,98160.60
2018-05-18T18:17:45.926Z,98161.97
2018-05-18T18:20:14.138Z,98156.94
2018-05-18T18:22:41.747Z,98159.98
2018-05-18T18:25:09.376Z,98162.10
2018-05-18T18:27:37.016Z,98167.00
2018-05-18T18:30:04.697Z,98169.67
2018-05-18T18:32:32.292Z,98166.39
2018-05-18T18:35:00.227Z,98177.52
2018-05-18T18:37:27.823Z,98175.12
2018-05-18T18:39:55.423Z,98175.50
2018-05-18T18:42:25.205Z,98175.33
2018-05-18T18:44:52.892Z,98176.29
2018-05-18T18:47:20.534Z,98187.52
2018-05-18T18:49:48.122Z,98178.84
2018-05-18T18:52:15.774Z,98182.92
2018-05-18T18:54:43.377Z,98182.37
2018-05-18T18:57:10.983Z,98180.02
2018-05-18T18:59:38.722Z,98189.84
2018-05-18T19:02:06.334Z,98191.41
2018-05-18T19:04:33.959Z,98192.27
2018-05-18T19:07:01.582Z,98193.27
2018-05-18T19:09:29.228Z,98198.55
2018-05-18T19:11:56.840Z,98209.66
2018-05-18T19:14:24.450Z,98207.83
2018-05-18T19:16:52.141Z,98218.11
2018-05-18T19:19:19.741Z,98212.91
2018-05-18T19:21:47.491Z,98212.67
2018-05-18T19:24:15.104Z,98211.31
2018-05-18T19:26:42.723Z,98212.06
2018-05-18T19:29:10.376Z,98206.80
2018-05-18T19:31:37.974Z,98206.89
2018-05-18T19:34:05.694Z,98214.80
2018-05-18T19:36:33.319Z,98219.53
2018-05-18T19:39:00.938Z,98212.28
2018-05-18T19:41:28.775Z,98218.36
2018-05-18T19:43:56.473Z,98220.25
2018-05-18T19:46:24.139Z,98230.00
2018-05-18T19:48:51.749Z,98222.11
2018-05-18T19:51:19.646Z,98223.60
2018-05-18T19:53:47.267Z,98225.77
2018-05-18T19:56:14.886Z,98232.80
2018-05-18T19:58:42.524Z,98240.27
2018-05-18T20:01:10.128Z,98242.00
2018-05-18T20:03:37.827Z,98239.13
2018-05-18T20:06:05.388Z,98242.94
2018-05-18T20:08:33.100Z,98246.32
2018-05-18T20:11:00.701Z,98244.64
2018-05-18T20:13:28.300Z,98246.70
2018-05-18T20:15:55.930Z,98245.58
2018-05-18T20:18:23.540Z,98249.81
2018-05-18T20:20:51.507Z,98245.73
2018-05-18T20:23:19.112Z,98246.87
2018-05-18T20:25:46.925Z,98252.75
2018-05-18T20:28:14.543Z,98251.39
2018-05-18T20:30:42.169Z,98252.12
2018-05-18T20:33:09.800Z,98255.19
2018-05-18T20:35:37.395Z,98261.34
2018-05-18T20:38:05.054Z,98257.88
2018-05-18T20:40:32.675Z,98257.04
2018-05-18T20:43:00.270Z,98264.44
2018-05-18T20:45:27.888Z,98259.28
2018-05-18T20:47:55.518Z,98265.66
2018-05-18T20:50:23.155Z,98262.78
2018-05-18T20:52:50.750Z,98262.47
2018-05-18T20:55:19.137Z,98264.72
2018-05-18T20:57:46.737Z,98257.14
2018-05-18T21:00:14.352Z,98256.37
2018-05-18T21:02:41.984Z,98266.32
2018-05-18T21:05:09.620Z,98268.05
2018-05-18T21:07:37.238Z,98271.47
2018-05-18T21:10:04.866Z,98277.95
2018-05-18T21:12:32.510Z,98279.10
2018-05-18T21:15:00.120Z,98275.95
2018-05-18T21:17:27.741Z,98279.14
2018-05-18T21:19:55.334Z,98274.40
2018-05-18T21:22:22.979Z,98271.64
2018-05-18T21:24:50.580Z,98275.38
2018-05-18T21:27:18.194Z,98279.42
2018-05-18T21:29:45.810Z,98279.06
2018-05-18T21:32:13.731Z,98276.07
2018-05-18T21:34:41.354Z,98269.33
2018-05-18T21:37:08.954Z,98272.12
2018-05-18T21:39:36.580Z,98277.30
2018-05-18T21:42:04.199Z,98281.81
2018-05-18T21:44:31.833Z,98284.55
2018-05-18T21:46:59.448Z,98286.75
2018-05-18T21:49:27.348Z,98285.03
2018-05-18T21:51:54.958Z,98283.06
2018-05-18T21:54:22.565Z,98287.94
2018-05-18T21:56:50.206Z,98292.95
2018-05-18T21:59:17.835Z,98284.30
2018-05-18T22:01:45.539Z,98292.17
2018-05-18T22:04:13.138Z,98289.34
2018-05-18T22:06:40.866Z,98288.57
2018-05-18T22:09:08.434Z,98290.39
2018-05-18T22:11:36.215Z,98293.32
2018-05-18T22:14:03.897Z,98298.41
2018-05-18T22:16:31.486Z,98294.64
2018-05-18T22:18:59.117Z,98298.20
2018-05-18T22:21:26.727Z,98300.35
2018-05-18T22:23:54.361Z,98298.03
2018-05-18T22:26:21.971Z,98297.81
2018-05-18T22:28:49.930Z,98295.67
2018-05-18T22:31:17.578Z,98290.26
2018-05-18T22:33:45.178Z,98286.45
2018-05-18T22:36:12.886Z,98294.48
2018-05-18T22:38:40.789Z,98290.98
2018-05-18T22:41:08.420Z,98286.98
2018-05-18T22:43:36.027Z,98288.56
2018-05-18T22:46:03.657Z,98293.28
2018-05-18T22:48:31.620Z,98285.95
2018-05-18T22:50:59.264Z,98286.60
2018-05-18T22:53:26.875Z,98287.12
2018-05-18T22:55:54.741Z,98291.59
2018-05-18T22:58:22.363Z,98284.77
2018-05-18T23:00:49.961Z,98282.27
2018-05-18T23:03:17.591Z,98285.84
2018-05-18T23:05:45.211Z,98282.73
2018-05-18T23:08:13.082Z,98281.23
2018-05-18T23:10:40.695Z,98270.34
2018-05-18T23:13:08.316Z,98273.26
2018-05-18T23:15:36.030Z,98280.48
2018-05-18T23:18:03.643Z,98278.86
2018-05-18T23:20:31.255Z,98274.62
2018-05-18T23:22:58.863Z,98276.16
2018-05-18T23:25:26.506Z,98275.57
2018-05-18T23:27:54.119Z,98270.75
2018-05-18T23:30:21.710Z,98274.12
2018-05-18T23:32:49.362Z,98275.20
2018-05-18T23:35:17.053Z,98272.67
2018-05-18T23:37:44.710Z,98274.41
2018-05-18T23:40:12.346Z,98279.22
2018-05-18T23:42:40.119Z,98275.47
2018-05-18T23:45:07.731Z,98273.02
2018-05-18T23:47:35.348Z,98269.63
2018-05-18T23:50:03.104Z,98268.09
2018-05-18T23:52:30.761Z,98260.25
2018-05-18T23:54:58.525Z,98259.53
2018-05-18T23:57:26.147Z,98262.95
2018-05-18T23:59:53.957Z,98263.22
